createdAt,value
2023-02-13T00:01:45.792Z,100515.36
2023-02-13T00:04:15.666Z,100512.65
2023-02-13T00:06:45.120Z,100510.92
2023-02-13T00:09:14.778Z,100509.67
2023-02-13T00:11:43.748Z,100509.55
2023-02-13T00:14:12.486Z,100508.26
2023-02-13T00:16:41.577Z,100513.08
2023-02-13T00:19:10.440Z,100512.19
2023-02-13T00:21:39.217Z,100519.23
2023-02-13T00:24:08.223Z,100522.80
2023-02-13T00:26:37.291Z,100521.58
2023-02-13T00:29:06.626Z,100519.70
2023-02-13T00:31:35.897Z,100523.34
2023-02-13T00:34:04.534Z,100525.40
2023-02-13T00:36:34.302Z,100522.41
2023-02-13T00:39:03.223Z,100519.83
2023-02-13T00:41:32.604Z,100524.17
2023-02-13T00:44:01.568Z,100527.50
2023-02-13T00:46:30.602Z,100526.02
2023-02-13T00:49:00.252Z,100527.34
2023-02-13T00:51:29.092Z,100525.27
2023-02-13T00:53:58.038Z,100522.45
2023-02-13T00:56:26.856Z,100522.99
2023-02-13T00:58:56.316Z,100521.42
2023-02-13T01:01:26.842Z,100528.84
2023-02-13T01:03:55.808Z,100530.18
2023-02-13T01:06:24.631Z,100533.80
2023-02-13T01:08:53.391Z,100531.70
2023-02-13T01:11:22.224Z,100533.43
2023-02-13T01:13:51.909Z,100526.61
2023-02-13T01:16:20.991Z,100526.11
2023-02-13T01:18:50.692Z,100524.57
2023-02-13T01:21:23.549Z,100525.54
2023-02-13T01:23:52.667Z,100523.76
2023-02-13T01:26:24.672Z,100522.02
2023-02-13T01:28:55.527Z,100522.15
2023-02-13T01:31:26.080Z,100525.13
2023-02-13T01:33:58.632Z,100520.24
2023-02-13T01:36:30.083Z,100520.92
2023-02-13T01:38:59.855Z,100521.64
2023-02-13T01:41:29.083Z,100530.03
2023-02-13T01:44:00.187Z,100532.82
2023-02-13T01:46:39.244Z,100532.20
2023-02-13T01:49:13.708Z,100529.55
2023-02-13T01:51:44.418Z,100531.61
2023-02-13T01:54:20.202Z,100531.17
2023-02-13T01:56:58.111Z,100529.52
2023-02-13T01:59:34.257Z,100531.11
2023-02-13T02:02:03.995Z,100527.07
2023-02-13T02:04:36.518Z,100527.73
2023-02-13T02:07:16.460Z,100529.66
2023-02-13T02:09:46.629Z,100524.70
2023-02-13T02:12:41.477Z,100525.00
2023-02-13T02:15:10.526Z,100530.88
2023-02-13T02:17:39.339Z,100534.00
2023-02-13T02:20:20.815Z,100535.91
2023-02-13T02:23:17.993Z,100536.45
2023-02-13T02:26:18.052Z,100544.12
2023-02-13T02:29:05.546Z,100535.52
2023-02-13T02:31:56.046Z,100533.84
2023-02-13T02:34:43.110Z,100524.09
2023-02-13T02:37:40.879Z,100524.44
2023-02-13T02:40:12.317Z,100534.48
2023-02-13T02:43:03.909Z,100541.68
2023-02-13T02:46:10.080Z,100540.65
2023-02-13T02:49:12.830Z,100542.52
2023-02-13T02:52:02.968Z,100541.69
2023-02-13T02:55:02.364Z,100542.32
2023-02-13T02:57:53.214Z,100540.13
2023-02-13T03:00:44.129Z,100538.58
2023-02-13T03:03:39.730Z,100537.69
2023-02-13T03:06:20.562Z,100540.80
2023-02-13T03:09:16.937Z,100540.14
2023-02-13T03:12:09.523Z,100544.30
2023-02-13T03:14:38.784Z,100544.27
2023-02-13T03:17:32.237Z,100546.41
2023-02-13T03:20:19.997Z,100548.66
2023-02-13T03:22:51.692Z,100546.79
2023-02-13T03:25:48.138Z,100550.93
2023-02-13T03:28:41.951Z,100555.14
2023-02-13T03:31:39.967Z,100557.47
2023-02-13T03:34:19.864Z,100552.75
2023-02-13T03:37:20.986Z,100556.91
2023-02-13T03:40:17.417Z,100554.00
2023-02-13T03:42:54.559Z,100560.53
2023-02-13T03:45:53.620Z,100562.37
2023-02-13T03:48:48.669Z,100561.44
2023-02-13T03:51:27.177Z,100562.85
2023-02-13T03:54:03.533Z,100566.17
2023-02-13T03:56:54.812Z,100565.46
2023-02-13T03:59:30.787Z,100562.17
2023-02-13T04:02:14.380Z,100559.02
2023-02-13T04:04:54.090Z,100563.86
2023-02-13T04:07:32.260Z,100562.39
2023-02-13T04:10:06.843Z,100562.53
2023-02-13T04:12:50.703Z,100565.63
2023-02-13T04:15:33.543Z,100565.17
2023-02-13T04:18:14.245Z,100569.46
2023-02-13T04:20:43.681Z,100569.21
2023-02-13T04:23:14.440Z,100574.55
2023-02-13T04:25:47.240Z,100582.83
2023-02-13T04:28:16.431Z,100576.17
2023-02-13T04:30:45.631Z,100576.16
2023-02-13T04:33:14.561Z,100573.51
2023-02-13T04:35:43.527Z,100574.52
2023-02-13T04:38:12.774Z,100579.36
2023-02-13T04:40:42.015Z,100579.48
2023-02-13T04:43:11.301Z,100579.03
2023-02-13T04:45:40.149Z,100580.81
2023-02-13T04:48:09.755Z,100583.70
2023-02-13T04:50:38.308Z,100587.02
2023-02-13T04:53:07.550Z,100590.30
2023-02-13T04:55:36.343Z,100590.75
2023-02-13T04:58:05.233Z,100593.20
2023-02-13T05:00:33.942Z,100595.11
2023-02-13T05:03:10.946Z,100598.36
2023-02-13T05:05:41.111Z,100603.12
2023-02-13T05:08:10.323Z,100604.15
2023-02-13T05:10:39.202Z,100608.23
2023-02-13T05:13:08.283Z,100606.45
2023-02-13T05:15:37.230Z,100606.83
2023-02-13T05:18:06.233Z,100606.98
2023-02-13T05:20:34.882Z,100606.88
2023-02-13T05:23:22.449Z,100610.42
2023-02-13T05:25:51.424Z,100617.13
2023-02-13T05:28:39.771Z,100616.62
2023-02-13T05:31:09.682Z,100615.10
2023-02-13T05:33:38.766Z,100615.91
2023-02-13T05:36:08.393Z,100617.45
2023-02-13T05:38:37.529Z,100614.86
2023-02-13T05:41:06.576Z,100618.82
2023-02-13T05:43:35.404Z,100619.42
2023-02-13T05:46:09.340Z,100621.35
2023-02-13T05:48:38.502Z,100624.52
2023-02-13T05:51:07.700Z,100630.05
2023-02-13T05:53:36.983Z,100635.34
2023-02-13T05:56:07.208Z,100632.77
2023-02-13T05:58:37.292Z,100640.23
2023-02-13T06:01:06.312Z,100642.25
2023-02-13T06:03:35.156Z,100642.94
2023-02-13T06:06:04.128Z,100643.83
2023-02-13T06:08:33.226Z,100646.05
2023-02-13T06:11:02.333Z,100646.34
2023-02-13T06:13:32.226Z,100649.95
2023-02-13T06:16:01.138Z,100648.49
2023-02-13T06:18:30.227Z,100650.91
2023-02-13T06:21:00.044Z,100650.26
2023-02-13T06:23:29.508Z,100651.73
2023-02-13T06:26:02.143Z,100651.73
2023-02-13T06:28:31.421Z,100653.73
2023-02-13T06:31:01.437Z,100657.41
2023-02-13T06:33:31.163Z,100656.87
2023-02-13T06:36:00.198Z,100651.57
2023-02-13T06:38:29.421Z,100653.14
2023-02-13T06:41:04.935Z,100658.02
2023-02-13T06:43:33.771Z,100656.73
2023-02-13T06:46:07.738Z,100656.50
2023-02-13T06:48:36.968Z,100656.55
2023-02-13T06:51:06.159Z,100659.80
2023-02-13T06:53:35.117Z,100659.88
2023-02-13T06:56:07.024Z,100655.21
2023-02-13T06:58:36.472Z,100655.83
2023-02-13T07:01:05.653Z,100654.06
2023-02-13T07:03:34.548Z,100651.79
2023-02-13T07:06:03.588Z,100658.67
2023-02-13T07:08:32.828Z,100660.34
2023-02-13T07:11:01.774Z,100652.11
2023-02-13T07:13:30.448Z,100654.95
2023-02-13T07:16:01.712Z,100653.96
2023-02-13T07:18:30.626Z,100655.38
2023-02-13T07:20:59.781Z,100656.88
2023-02-13T07:23:29.020Z,100653.45
2023-02-13T07:26:00.662Z,100647.34
2023-02-13T07:28:30.253Z,100646.57
2023-02-13T07:31:04.536Z,100653.28
2023-02-13T07:33:37.027Z,100644.30
2023-02-13T07:36:06.661Z,100646.56
2023-02-13T07:38:35.711Z,100647.80
2023-02-13T07:41:05.456Z,100645.64
2023-02-13T07:43:34.737Z,100645.20
2023-02-13T07:46:04.987Z,100646.38
2023-02-13T07:48:34.368Z,100643.80
2023-02-13T07:51:04.864Z,100644.63
2023-02-13T07:53:34.041Z,100642.98
2023-02-13T07:56:08.075Z,100639.34
2023-02-13T07:58:38.326Z,100643.92
2023-02-13T08:01:11.681Z,100643.27
2023-02-13T08:03:41.067Z,100643.45
2023-02-13T08:06:10.581Z,100643.31
2023-02-13T08:08:39.623Z,100651.09
2023-02-13T08:11:42.894Z,100652.05
2023-02-13T08:14:12.248Z,100657.55
2023-02-13T08:16:41.018Z,100655.69
2023-02-13T08:19:10.468Z,100656.08
2023-02-13T08:21:41.163Z,100655.40
2023-02-13T08:24:11.546Z,100651.20
2023-02-13T08:26:40.968Z,100647.00
2023-02-13T08:29:11.118Z,100649.16
2023-02-13T08:31:40.044Z,100649.02
2023-02-13T08:34:09.119Z,100648.45
2023-02-13T08:36:38.235Z,100645.98
2023-02-13T08:39:07.380Z,100647.05
2023-02-13T08:41:36.565Z,100646.86
2023-02-13T08:44:05.936Z,100646.21
2023-02-13T08:46:35.365Z,100645.83
2023-02-13T08:49:06.054Z,100640.13
2023-02-13T08:51:35.575Z,100642.45
2023-02-13T08:54:05.251Z,100641.75
2023-02-13T08:56:36.038Z,100642.67
2023-02-13T08:59:05.532Z,100644.74
2023-02-13T09:01:35.198Z,100645.11
2023-02-13T09:04:04.880Z,100640.88
2023-02-13T09:06:33.823Z,100643.36
2023-02-13T09:09:05.216Z,100643.26
2023-02-13T09:11:34.203Z,100641.67
2023-02-13T09:14:03.358Z,100639.20
2023-02-13T09:16:33.156Z,100637.96
2023-02-13T09:19:02.231Z,100629.73
2023-02-13T09:21:31.856Z,100630.80
2023-02-13T09:24:00.861Z,100635.02
2023-02-13T09:26:29.816Z,100634.65
2023-02-13T09:28:58.820Z,100636.33
2023-02-13T09:31:29.619Z,100633.81
2023-02-13T09:33:59.014Z,100631.36
2023-02-13T09:36:28.425Z,100632.83
2023-02-13T09:38:58.732Z,100631.39
2023-02-13T09:41:34.972Z,100633.00
2023-02-13T09:44:43.957Z,100630.89
2023-02-13T09:47:29.486Z,100633.90
2023-02-13T09:50:07.436Z,100632.92
2023-02-13T09:52:39.342Z,100628.75
2023-02-13T09:55:20.525Z,100632.10
2023-02-13T09:58:04.102Z,100633.33
2023-02-13T10:00:51.420Z,100633.00
2023-02-13T10:03:24.160Z,100633.48
2023-02-13T10:06:27.024Z,100630.59
2023-02-13T10:09:11.121Z,100630.11
2023-02-13T10:12:02.323Z,100628.02
2023-02-13T10:14:43.535Z,100624.35
2023-02-13T10:17:18.750Z,100621.64
2023-02-13T10:19:58.862Z,100619.27
2023-02-13T10:22:43.801Z,100617.58
2023-02-13T10:25:25.072Z,100617.02
2023-02-13T10:28:01.164Z,100618.38
2023-02-13T10:30:40.311Z,100614.17
2023-02-13T10:33:21.565Z,100614.11
2023-02-13T10:36:03.064Z,100610.89
2023-02-13T10:38:35.650Z,100605.92
2023-02-13T10:41:30.710Z,100604.48
2023-02-13T10:44:21.535Z,100606.30
2023-02-13T10:47:09.376Z,100606.02
2023-02-13T10:50:21.589Z,100605.57
2023-02-13T10:53:08.886Z,100598.16
2023-02-13T10:55:59.132Z,100595.70
2023-02-13T10:58:40.541Z,100591.48
2023-02-13T11:01:36.874Z,100587.89
2023-02-13T11:04:15.857Z,100585.25
2023-02-13T11:07:06.680Z,100587.14
2023-02-13T11:09:40.797Z,100584.14
2023-02-13T11:12:32.264Z,100582.33
2023-02-13T11:15:08.639Z,100576.73
2023-02-13T11:17:44.771Z,100576.69
2023-02-13T11:20:31.855Z,100579.85
2023-02-13T11:23:33.403Z,100575.39
2023-02-13T11:26:05.197Z,100568.63
2023-02-13T11:28:48.053Z,100568.13
2023-02-13T11:31:22.985Z,100561.98
2023-02-13T11:33:53.409Z,100547.46
2023-02-13T11:36:27.272Z,100547.81
2023-02-13T11:39:18.600Z,100542.89
2023-02-13T11:41:51.202Z,100539.60
2023-02-13T11:44:30.842Z,100534.16
2023-02-13T11:47:05.921Z,100529.30
2023-02-13T11:49:39.433Z,100525.48
2023-02-13T11:52:24.239Z,100523.48
2023-02-13T11:55:05.098Z,100521.05
2023-02-13T11:57:38.014Z,100518.91
2023-02-13T12:00:37.982Z,100520.63
2023-02-13T12:03:27.644Z,100516.40
2023-02-13T12:06:17.500Z,100515.11
2023-02-13T12:08:50.107Z,100516.08
2023-02-13T12:11:25.459Z,100513.61
2023-02-13T12:13:56.030Z,100517.31
2023-02-13T12:16:34.867Z,100511.56
2023-02-13T12:19:18.068Z,100507.11
2023-02-13T12:22:08.196Z,100507.30
2023-02-13T12:25:06.960Z,100500.76
2023-02-13T12:27:55.130Z,100496.96
2023-02-13T12:30:43.576Z,100495.61
2023-02-13T12:33:41.059Z,100496.63
2023-02-13T12:36:25.604Z,100494.89
2023-02-13T12:39:13.409Z,100486.08
2023-02-13T12:42:28.223Z,100477.14
2023-02-13T12:45:09.540Z,100485.53
2023-02-13T12:48:03.150Z,100482.83
2023-02-13T12:51:15.958Z,100479.35
2023-02-13T12:54:09.131Z,100471.32
2023-02-13T12:57:02.903Z,100469.95
2023-02-13T13:00:07.555Z,100470.77
2023-02-13T13:02:46.061Z,100468.91
2023-02-13T13:05:50.635Z,100462.47
2023-02-13T13:08:37.019Z,100460.91
2023-02-13T13:11:24.686Z,100457.95
2023-02-13T13:14:12.222Z,100451.06
2023-02-13T13:16:55.738Z,100449.64
2023-02-13T13:19:51.980Z,100447.56
2023-02-13T13:22:30.891Z,100448.93
2023-02-13T13:25:15.153Z,100444.77
2023-02-13T13:27:47.334Z,100446.01
2023-02-13T13:30:27.601Z,100447.12
2023-02-13T13:33:04.903Z,100442.14
2023-02-13T13:35:36.586Z,100437.84
2023-02-13T13:38:21.674Z,100444.65
2023-02-13T13:41:06.614Z,100449.08
2023-02-13T13:43:50.328Z,100450.77
2023-02-13T13:46:32.337Z,100455.23
2023-02-13T13:49:07.382Z,100454.85
2023-02-13T13:51:37.305Z,100457.94
2023-02-13T13:54:06.212Z,100453.52
2023-02-13T13:56:53.439Z,100455.69
2023-02-13T13:59:34.667Z,100458.50
2023-02-13T14:02:19.107Z,100456.17
2023-02-13T14:05:03.956Z,100455.79
2023-02-13T14:07:45.100Z,100455.93
2023-02-13T14:10:24.153Z,100452.52
2023-02-13T14:12:56.301Z,100451.15
2023-02-13T14:15:35.702Z,100457.72
2023-02-13T14:18:08.694Z,100455.61
2023-02-13T14:20:52.423Z,100449.26
2023-02-13T14:23:30.550Z,100450.77
2023-02-13T14:26:17.807Z,100454.20
2023-02-13T14:28:49.814Z,100452.70
2023-02-13T14:31:24.398Z,100455.77
2023-02-13T14:34:20.011Z,100450.83
2023-02-13T14:37:08.508Z,100447.95
2023-02-13T14:39:42.937Z,100447.42
2023-02-13T14:42:29.209Z,100445.02
2023-02-13T14:45:01.871Z,100446.52
2023-02-13T14:47:45.428Z,100445.91
2023-02-13T14:50:24.020Z,100444.77
2023-02-13T14:52:57.420Z,100446.66
2023-02-13T14:55:31.763Z,100439.77
2023-02-13T14:58:24.264Z,100443.71
2023-02-13T15:01:00.666Z,100445.41
2023-02-13T15:04:21.221Z,100447.38
2023-02-13T15:06:55.416Z,100444.36
2023-02-13T15:09:39.656Z,100442.14
2023-02-13T15:12:27.020Z,100441.03
2023-02-13T15:14:57.490Z,100441.11
2023-02-13T15:17:31.179Z,100437.92
2023-02-13T15:20:08.200Z,100438.98
2023-02-13T15:22:42.723Z,100438.30
2023-02-13T15:25:30.743Z,100440.61
2023-02-13T15:28:05.967Z,100437.33
2023-02-13T15:30:38.879Z,100442.66
2023-02-13T15:33:20.089Z,100440.11
2023-02-13T15:35:58.221Z,100441.95
2023-02-13T15:38:40.053Z,100433.36
2023-02-13T15:41:21.196Z,100438.64
2023-02-13T15:43:55.880Z,100433.75
2023-02-13T15:46:26.963Z,100439.66
2023-02-13T15:49:07.023Z,100438.61
2023-02-13T15:51:37.047Z,100438.49
2023-02-13T15:54:26.758Z,100442.49
2023-02-13T15:57:00.077Z,100447.64
2023-02-13T15:59:40.586Z,100446.30
2023-02-13T16:02:24.942Z,100448.17
2023-02-13T16:04:57.012Z,100452.71
2023-02-13T16:07:27.452Z,100453.52
2023-02-13T16:10:37.181Z,100453.83
2023-02-13T16:13:16.604Z,100457.83
2023-02-13T16:15:45.717Z,100458.98
2023-02-13T16:18:20.632Z,100458.73
2023-02-13T16:20:55.601Z,100464.84
2023-02-13T16:23:25.541Z,100474.66
2023-02-13T16:26:04.735Z,100475.83
2023-02-13T16:28:35.144Z,100472.70
2023-02-13T16:31:05.730Z,100474.70
2023-02-13T16:33:42.032Z,100477.38
2023-02-13T16:36:11.492Z,100480.75
2023-02-13T16:38:42.422Z,100483.30
2023-02-13T16:41:22.747Z,100484.01
2023-02-13T16:44:01.024Z,100488.73
2023-02-13T16:46:36.595Z,100494.02
2023-02-13T16:49:09.447Z,100501.28
2023-02-13T16:51:47.765Z,100500.19
2023-02-13T16:54:30.787Z,100506.02
2023-02-13T16:57:14.513Z,100508.84
2023-02-13T16:59:58.861Z,100512.39
2023-02-13T17:02:35.364Z,100514.14
2023-02-13T17:05:10.888Z,100524.55
2023-02-13T17:07:49.778Z,100521.30
2023-02-13T17:10:35.921Z,100526.49
2023-02-13T17:13:14.284Z,100531.25
2023-02-13T17:15:47.335Z,100529.63
2023-02-13T17:18:17.394Z,100537.15
2023-02-13T17:20:47.812Z,100538.50
2023-02-13T17:23:22.175Z,100541.54
2023-02-13T17:25:54.244Z,100544.59
2023-02-13T17:28:30.745Z,100546.46
2023-02-13T17:31:02.519Z,100548.40
2023-02-13T17:33:37.452Z,100553.08
2023-02-13T17:36:07.601Z,100550.36
2023-02-13T17:38:37.272Z,100553.74
2023-02-13T17:41:17.222Z,100554.38
2023-02-13T17:43:46.983Z,100554.34
2023-02-13T17:46:18.052Z,100558.98
2023-02-13T17:48:47.685Z,100557.90
2023-02-13T17:51:17.676Z,100556.79
2023-02-13T17:53:47.785Z,100556.33
2023-02-13T17:56:18.503Z,100556.51
2023-02-13T17:58:48.922Z,100561.19
2023-02-13T18:01:19.885Z,100562.19
2023-02-13T18:03:53.214Z,100566.02
2023-02-13T18:06:23.827Z,100567.48
2023-02-13T18:08:53.847Z,100567.55
2023-02-13T18:11:24.109Z,100565.66
2023-02-13T18:13:53.928Z,100573.23
2023-02-13T18:16:26.191Z,100572.23
2023-02-13T18:18:57.410Z,100571.05
2023-02-13T18:21:28.176Z,100574.55
2023-02-13T18:23:58.268Z,100576.72
2023-02-13T18:26:29.040Z,100578.80
2023-02-13T18:28:58.889Z,100577.80
2023-02-13T18:31:30.527Z,100575.06
2023-02-13T18:33:59.830Z,100578.52
2023-02-13T18:36:29.558Z,100580.19
2023-02-13T18:38:59.684Z,100582.77
2023-02-13T18:41:30.286Z,100577.39
2023-02-13T18:44:01.241Z,100576.73
2023-02-13T18:46:32.738Z,100574.13
2023-02-13T18:49:03.116Z,100577.33
2023-02-13T18:51:32.994Z,100579.63
2023-02-13T18:54:02.842Z,100583.20
2023-02-13T18:56:32.564Z,100588.42
2023-02-13T18:59:01.769Z,100588.35
2023-02-13T19:01:31.503Z,100594.52
2023-02-13T19:04:02.904Z,100592.86
2023-02-13T19:06:33.103Z,100596.52
2023-02-13T19:09:02.691Z,100594.33
2023-02-13T19:11:34.780Z,100597.08
2023-02-13T19:14:03.982Z,100600.98
2023-02-13T19:16:35.639Z,100601.02
2023-02-13T19:19:08.903Z,100599.36
2023-02-13T19:21:40.364Z,100600.78
2023-02-13T19:24:11.972Z,100601.83
2023-02-13T19:26:42.710Z,100607.78
2023-02-13T19:29:11.749Z,100612.17
2023-02-13T19:31:42.165Z,100614.79
2023-02-13T19:34:12.227Z,100615.63
2023-02-13T19:36:43.225Z,100613.84
2023-02-13T19:39:12.865Z,100614.11
2023-02-13T19:41:42.731Z,100612.51
2023-02-13T19:44:13.266Z,100616.38
2023-02-13T19:46:44.292Z,100617.65
2023-02-13T19:49:13.774Z,100616.88
2023-02-13T19:51:47.582Z,100616.61
2023-02-13T19:54:17.171Z,100617.43
2023-02-13T19:56:48.234Z,100618.59
2023-02-13T19:59:17.486Z,100619.79
2023-02-13T20:01:47.259Z,100625.09
2023-02-13T20:04:17.055Z,100621.19
2023-02-13T20:06:46.338Z,100619.42
2023-02-13T20:09:17.496Z,100617.48
2023-02-13T20:11:48.305Z,100614.94
2023-02-13T20:14:18.776Z,100621.40
2023-02-13T20:16:49.536Z,100620.68
2023-02-13T20:19:20.795Z,100626.44
2023-02-13T20:21:52.097Z,100630.72
2023-02-13T20:24:22.858Z,100632.73
2023-02-13T20:26:53.987Z,100635.77
2023-02-13T20:29:24.781Z,100637.38
2023-02-13T20:31:55.600Z,100641.93
2023-02-13T20:34:29.649Z,100640.27
2023-02-13T20:37:02.593Z,100641.25
2023-02-13T20:39:34.428Z,100640.46
2023-02-13T20:42:04.995Z,100640.85
2023-02-13T20:44:35.372Z,100642.42
2023-02-13T20:47:04.680Z,100644.85
2023-02-13T20:49:34.345Z,100645.28
2023-02-13T20:52:04.456Z,100647.67
2023-02-13T20:54:35.005Z,100647.15
2023-02-13T20:57:07.700Z,100645.29
2023-02-13T20:59:37.430Z,100646.13
2023-02-13T21:02:08.619Z,100647.64
2023-02-13T21:04:40.412Z,100650.67
2023-02-13T21:07:10.879Z,100650.23
2023-02-13T21:09:40.817Z,100647.48
2023-02-13T21:12:11.106Z,100645.03
2023-02-13T21:14:41.862Z,100648.52
2023-02-13T21:17:11.556Z,100648.44
2023-02-13T21:19:41.307Z,100650.94
2023-02-13T21:22:14.662Z,100643.95
2023-02-13T21:24:44.490Z,100645.34
2023-02-13T21:27:13.967Z,100642.30
2023-02-13T21:29:42.982Z,100646.27
2023-02-13T21:32:12.580Z,100643.74
2023-02-13T21:34:43.071Z,100641.02
2023-02-13T21:37:12.868Z,100640.14
2023-02-13T21:39:42.601Z,100643.41
2023-02-13T21:42:13.573Z,100644.79
2023-02-13T21:44:44.668Z,100651.45
2023-02-13T21:47:17.060Z,100650.18
2023-02-13T21:49:47.264Z,100647.64
2023-02-13T21:52:17.483Z,100646.20
2023-02-13T21:54:48.436Z,100647.87
2023-02-13T21:57:17.798Z,100647.41
2023-02-13T21:59:46.943Z,100653.23
2023-02-13T22:02:18.244Z,100654.89
2023-02-13T22:04:47.829Z,100652.17
2023-02-13T22:07:18.311Z,100654.27
2023-02-13T22:09:49.925Z,100656.38
2023-02-13T22:12:19.169Z,100652.08
2023-02-13T22:14:48.517Z,100653.62
2023-02-13T22:17:19.391Z,100651.70
2023-02-13T22:19:50.947Z,100653.09
2023-02-13T22:22:19.862Z,100656.14
2023-02-13T22:24:49.881Z,100661.32
2023-02-13T22:27:19.363Z,100664.50
2023-02-13T22:29:48.267Z,100663.31
2023-02-13T22:32:18.713Z,100670.45
2023-02-13T22:34:47.267Z,100672.40
2023-02-13T22:37:16.224Z,100668.55
2023-02-13T22:39:45.581Z,100664.36
2023-02-13T22:42:15.389Z,100668.55
2023-02-13T22:44:45.180Z,100672.83
2023-02-13T22:47:14.601Z,100675.11
2023-02-13T22:49:43.810Z,100677.27
2023-02-13T22:52:13.011Z,100673.52
2023-02-13T22:54:42.716Z,100678.11
2023-02-13T22:57:11.385Z,100677.34
2023-02-13T22:59:40.626Z,100678.23
2023-02-13T23:02:09.807Z,100672.10
2023-02-13T23:04:39.629Z,100674.51
2023-02-13T23:07:08.829Z,100671.94
2023-02-13T23:09:38.014Z,100673.05
2023-02-13T23:12:26.318Z,100670.52
2023-02-13T23:14:58.529Z,100673.59
2023-02-13T23:17:53.119Z,100674.13
2023-02-13T23:20:24.573Z,100677.54
2023-02-13T23:22:56.972Z,100674.81
2023-02-13T23:25:26.629Z,100679.83
2023-02-13T23:27:59.779Z,100676.93
2023-02-13T23:30:31.017Z,100672.54
2023-02-13T23:33:02.240Z,100666.03
2023-02-13T23:35:31.184Z,100665.60
2023-02-13T23:38:00.237Z,100666.16
2023-02-13T23:40:29.420Z,100666.60
2023-02-13T23:42:58.597Z,100668.54
2023-02-13T23:45:27.941Z,100664.71
2023-02-13T23:47:57.195Z,100663.98
2023-02-13T23:50:26.305Z,100664.54
2023-02-13T23:52:55.699Z,100663.92
2023-02-13T23:55:24.926Z,100670.67
2023-02-13T23:57:53.918Z,100671.84
